createdAt,value
2023-05-06T00:00:56.125Z,245.34
2023-05-06T00:01:56.201Z,241.46
2023-05-06T00:02:56.308Z,250.72
2023-05-06T00:03:56.472Z,251.17
2023-05-06T00:04:56.522Z,255.93
2023-05-06T00:05:56.461Z,257.89
2023-05-06T00:06:56.535Z,262.98
2023-05-06T00:07:56.675Z,248.03
2023-05-06T00:08:56.685Z,243.47
2023-05-06T00:09:56.746Z,232.46
2023-05-06T00:10:56.749Z,231.07
2023-05-06T00:11:56.780Z,225.01
2023-05-06T00:13:02.243Z,226.94
2023-05-06T00:13:56.893Z,232.97
2023-05-06T00:14:56.954Z,234.43
2023-05-06T00:15:57.064Z,238.12
2023-05-06T00:16:57.115Z,238.54
2023-05-06T00:17:57.235Z,240.01
2023-05-06T00:18:57.248Z,238.95
2023-05-06T00:19:57.280Z,245.84
2023-05-06T00:20:57.309Z,242.91
2023-05-06T00:21:57.349Z,249.19
2023-05-06T00:22:57.383Z,247.44
2023-05-06T00:23:57.452Z,253.73
2023-05-06T00:24:57.488Z,253.78
2023-05-06T00:25:57.579Z,257.36
2023-05-06T00:26:57.591Z,260.37
2023-05-06T00:27:57.619Z,260.55
2023-05-06T00:28:57.629Z,260.05
2023-05-06T00:29:57.640Z,261.99
2023-05-06T00:30:57.674Z,264.06
2023-05-06T00:31:57.696Z,261.13
2023-05-06T00:32:57.699Z,262.47
2023-05-06T00:33:57.695Z,264.79
2023-05-06T00:34:57.696Z,257.84
2023-05-06T00:35:57.742Z,257.41
2023-05-06T00:36:57.715Z,265.23
2023-05-06T00:37:57.764Z,279.69
2023-05-06T00:38:57.750Z,279.24
2023-05-06T00:39:57.817Z,275.46
2023-05-06T00:40:58.461Z,272.85
2023-05-06T00:41:57.889Z,274.18
2023-05-06T00:42:58.011Z,263.74
2023-05-06T00:43:57.996Z,265.04
2023-05-06T00:44:58.118Z,275.54
2023-05-06T00:45:58.155Z,272.96
2023-05-06T00:46:58.191Z,273.46
2023-05-06T00:47:58.339Z,264.52
2023-05-06T00:48:58.346Z,266.69
2023-05-06T00:49:58.409Z,270.62
2023-05-06T00:50:58.413Z,263.66
2023-05-06T00:51:58.419Z,264.00
2023-05-06T00:52:58.467Z,264.48
2023-05-06T00:53:58.451Z,265.68
2023-05-06T00:54:58.465Z,267.24
2023-05-06T00:55:58.505Z,278.67
2023-05-06T00:56:58.495Z,268.21
2023-05-06T00:57:58.503Z,272.89
2023-05-06T00:58:58.496Z,263.25
2023-05-06T00:59:58.499Z,263.23
2023-05-06T01:00:58.534Z,260.73
2023-05-06T01:01:58.545Z,262.69
2023-05-06T01:02:58.805Z,254.86
2023-05-06T01:03:58.796Z,252.72
2023-05-06T01:04:58.643Z,250.97
2023-05-06T01:05:58.547Z,247.86
2023-05-06T01:06:58.557Z,251.06
2023-05-06T01:07:58.574Z,243.22
2023-05-06T01:08:58.573Z,247.63
2023-05-06T01:09:58.614Z,242.57
2023-05-06T01:10:58.633Z,238.82
2023-05-06T01:11:58.677Z,241.40
2023-05-06T01:13:00.301Z,238.92
2023-05-06T01:13:58.753Z,236.05
2023-05-06T01:14:58.866Z,230.25
2023-05-06T01:15:58.855Z,231.02
2023-05-06T01:16:58.989Z,224.82
2023-05-06T01:17:59.007Z,222.43
2023-05-06T01:18:58.937Z,225.10
2023-05-06T01:19:58.987Z,224.04
2023-05-06T01:20:59.023Z,224.60
2023-05-06T01:21:59.018Z,227.64
2023-05-06T01:22:59.028Z,232.99
2023-05-06T01:23:59.064Z,230.06
2023-05-06T01:24:59.076Z,232.32
2023-05-06T01:25:59.101Z,232.84
2023-05-06T01:26:59.138Z,228.58
2023-05-06T01:27:59.146Z,231.39
2023-05-06T01:28:59.169Z,224.25
2023-05-06T01:29:59.191Z,222.36
2023-05-06T01:30:59.216Z,216.87
2023-05-06T01:31:59.247Z,214.22
2023-05-06T01:32:59.307Z,214.72
2023-05-06T01:33:59.255Z,213.14
2023-05-06T01:34:59.283Z,214.68
2023-05-06T01:35:59.242Z,215.27
2023-05-06T01:36:59.253Z,215.94
2023-05-06T01:37:59.290Z,212.96
2023-05-06T01:38:59.297Z,216.58
2023-05-06T01:39:59.330Z,214.19
2023-05-06T01:40:59.321Z,208.38
2023-05-06T01:41:59.350Z,212.02
2023-05-06T01:42:59.362Z,201.32
2023-05-06T01:43:59.414Z,196.87
2023-05-06T01:44:59.375Z,196.72
2023-05-06T01:45:59.398Z,199.58
2023-05-06T01:46:59.432Z,200.20
2023-05-06T01:47:59.526Z,202.26
2023-05-06T01:48:59.477Z,196.70
2023-05-06T01:49:59.546Z,195.25
2023-05-06T01:50:59.580Z,199.48
2023-05-06T01:51:59.579Z,199.52
2023-05-06T01:52:59.588Z,199.97
2023-05-06T01:53:59.615Z,200.25
2023-05-06T01:54:59.624Z,197.76
2023-05-06T01:55:59.626Z,196.42
2023-05-06T01:56:59.671Z,190.57
2023-05-06T01:57:59.713Z,187.60
2023-05-06T01:59:00.082Z,176.01
2023-05-06T01:59:59.691Z,174.77
2023-05-06T02:00:59.696Z,173.64
2023-05-06T02:01:59.911Z,176.09
2023-05-06T02:02:59.838Z,171.95
2023-05-06T02:03:59.897Z,175.49
2023-05-06T02:04:59.814Z,170.21
2023-05-06T02:05:59.771Z,174.23
2023-05-06T02:06:59.785Z,182.94
2023-05-06T02:07:59.895Z,185.77
2023-05-06T02:08:59.796Z,178.40
2023-05-06T02:09:59.828Z,180.81
2023-05-06T02:10:59.822Z,177.37
2023-05-06T02:11:59.831Z,180.36
2023-05-06T02:12:59.985Z,181.28
2023-05-06T02:13:59.853Z,172.96
2023-05-06T02:14:59.862Z,173.25
2023-05-06T02:15:59.984Z,174.30
2023-05-06T02:16:59.895Z,176.70
2023-05-06T02:18:00.063Z,182.24
2023-05-06T02:18:59.924Z,184.22
2023-05-06T02:19:59.970Z,186.48
2023-05-06T02:21:00.006Z,184.65
2023-05-06T02:21:59.951Z,177.27
2023-05-06T02:22:59.985Z,181.44
2023-05-06T02:23:59.982Z,188.24
2023-05-06T02:25:00.005Z,167.41
2023-05-06T02:26:00.021Z,160.67
2023-05-06T02:27:00.017Z,153.31
2023-05-06T02:28:00.064Z,150.44
2023-05-06T02:29:00.053Z,151.65
2023-05-06T02:30:00.090Z,149.54
2023-05-06T02:31:00.136Z,146.85
2023-05-06T02:32:00.162Z,146.21
2023-05-06T02:33:00.239Z,144.43
2023-05-06T02:34:00.338Z,134.64
2023-05-06T02:35:00.206Z,130.15
2023-05-06T02:36:00.200Z,124.10
2023-05-06T02:37:00.288Z,118.74
2023-05-06T02:38:00.200Z,118.85
2023-05-06T02:39:00.235Z,117.04
2023-05-06T02:40:00.282Z,119.76
2023-05-06T02:41:00.259Z,112.79
2023-05-06T02:42:00.284Z,109.41
2023-05-06T02:43:00.374Z,103.09
2023-05-06T02:44:00.297Z,98.06
2023-05-06T02:45:00.321Z,91.93
2023-05-06T02:46:00.380Z,86.07
2023-05-06T02:47:00.338Z,81.88
2023-05-06T02:48:00.404Z,78.48
2023-05-06T02:49:00.393Z,77.56
2023-05-06T02:50:00.433Z,74.69
2023-05-06T02:51:00.459Z,71.51
2023-05-06T02:52:00.466Z,70.51
2023-05-06T02:53:00.547Z,69.75
2023-05-06T02:54:00.555Z,70.77
2023-05-06T02:55:00.527Z,69.55
2023-05-06T02:56:00.527Z,71.18
2023-05-06T02:57:00.596Z,70.08
2023-05-06T02:58:00.596Z,71.22
2023-05-06T02:59:00.671Z,72.36
2023-05-06T03:00:00.667Z,73.74
2023-05-06T03:01:00.712Z,75.57
2023-05-06T03:02:00.702Z,76.79
2023-05-06T03:03:00.770Z,77.25
2023-05-06T03:04:00.726Z,79.22
2023-05-06T03:05:00.771Z,79.36
2023-05-06T03:06:00.740Z,80.43
2023-05-06T03:07:00.773Z,79.59
2023-05-06T03:08:00.784Z,80.82
2023-05-06T03:09:00.928Z,80.08
2023-05-06T03:10:00.818Z,75.86
2023-05-06T03:11:00.861Z,69.67
2023-05-06T03:12:00.854Z,63.98
2023-05-06T03:13:00.931Z,65.34
2023-05-06T03:14:00.918Z,65.37
2023-05-06T03:15:00.967Z,63.81
2023-05-06T03:16:00.996Z,65.73
2023-05-06T03:17:01.111Z,67.35
2023-05-06T03:18:01.099Z,67.38
2023-05-06T03:19:01.104Z,67.45
2023-05-06T03:20:01.112Z,68.07
2023-05-06T03:21:01.297Z,69.00
2023-05-06T03:22:01.147Z,71.71
2023-05-06T03:23:01.190Z,72.48
2023-05-06T03:24:01.203Z,73.19
2023-05-06T03:25:01.219Z,72.62
2023-05-06T03:26:01.264Z,75.12
2023-05-06T03:27:01.287Z,72.34
2023-05-06T03:28:01.378Z,70.23
2023-05-06T03:29:01.367Z,65.59
2023-05-06T03:30:01.370Z,63.33
2023-05-06T03:31:01.402Z,63.39
2023-05-06T03:32:01.494Z,62.31
2023-05-06T03:33:01.568Z,60.29
2023-05-06T03:34:01.473Z,59.85
2023-05-06T03:35:01.533Z,60.12
2023-05-06T03:36:01.508Z,58.01
2023-05-06T03:37:01.558Z,59.02
2023-05-06T03:38:01.570Z,57.34
2023-05-06T03:39:01.589Z,56.59
2023-05-06T03:40:01.610Z,56.12
2023-05-06T03:41:01.688Z,56.89
2023-05-06T03:42:01.648Z,56.44
2023-05-06T03:43:01.725Z,55.81
2023-05-06T03:44:01.857Z,55.55
2023-05-06T03:45:01.731Z,55.77
2023-05-06T03:46:01.801Z,53.86
2023-05-06T03:47:01.877Z,53.81
2023-05-06T03:48:01.855Z,51.65
2023-05-06T03:49:01.840Z,51.67
2023-05-06T03:50:02.549Z,51.69
2023-05-06T03:51:01.911Z,49.17
2023-05-06T03:52:01.944Z,48.66
2023-05-06T03:53:01.986Z,50.01
2023-05-06T03:54:01.987Z,49.30
2023-05-06T03:55:02.005Z,48.27
2023-05-06T03:56:02.015Z,49.25
2023-05-06T03:57:02.166Z,47.57
2023-05-06T03:58:02.099Z,49.03
2023-05-06T03:59:02.092Z,51.34
2023-05-06T04:00:02.160Z,50.53
2023-05-06T04:01:02.150Z,50.95
2023-05-06T04:02:02.165Z,52.59
2023-05-06T04:03:02.302Z,52.75
2023-05-06T04:04:02.310Z,52.72
2023-05-06T04:05:02.253Z,53.18
2023-05-06T04:06:02.332Z,53.60
2023-05-06T04:07:02.397Z,53.55
2023-05-06T04:08:02.501Z,52.60
2023-05-06T04:09:02.578Z,52.17
2023-05-06T04:10:02.651Z,52.34
2023-05-06T04:11:02.726Z,51.16
2023-05-06T04:12:02.848Z,50.72
2023-05-06T04:13:02.956Z,50.61
2023-05-06T04:14:02.993Z,50.50
2023-05-06T04:15:03.087Z,51.16
2023-05-06T04:16:03.142Z,51.89
2023-05-06T04:17:03.200Z,52.35
2023-05-06T04:18:03.340Z,51.52
2023-05-06T04:19:05.083Z,50.25
2023-05-06T04:20:03.400Z,49.34
2023-05-06T04:21:03.466Z,48.61
2023-05-06T04:22:03.459Z,48.07
2023-05-06T04:23:03.488Z,47.26
2023-05-06T04:24:03.524Z,48.48
2023-05-06T04:25:03.584Z,47.39
2023-05-06T04:26:03.555Z,47.00
2023-05-06T04:27:03.605Z,47.27
2023-05-06T04:28:04.090Z,47.14
2023-05-06T04:29:03.837Z,46.99
2023-05-06T04:30:03.673Z,47.44
2023-05-06T04:31:03.698Z,48.15
2023-05-06T04:32:03.783Z,47.39
2023-05-06T04:33:03.826Z,47.75
2023-05-06T04:34:03.814Z,47.35
2023-05-06T04:35:03.878Z,49.16
2023-05-06T04:36:03.879Z,48.95
2023-05-06T04:37:03.912Z,47.30
2023-05-06T04:38:03.925Z,48.40
2023-05-06T04:39:03.954Z,48.75
2023-05-06T04:40:03.985Z,46.77
2023-05-06T04:41:04.004Z,47.45
2023-05-06T04:42:04.029Z,44.99
2023-05-06T04:43:04.093Z,46.16
2023-05-06T04:44:04.105Z,44.51
2023-05-06T04:45:04.213Z,44.65
2023-05-06T04:46:04.196Z,44.44
2023-05-06T04:47:04.246Z,45.25
2023-05-06T04:48:04.272Z,45.46
2023-05-06T04:49:04.268Z,46.79
2023-05-06T04:50:04.281Z,45.17
2023-05-06T04:51:04.401Z,46.15
2023-05-06T04:52:04.346Z,46.42
2023-05-06T04:53:04.419Z,45.61
2023-05-06T04:54:04.413Z,45.46
2023-05-06T04:55:04.416Z,44.74
2023-05-06T04:56:04.458Z,44.72
2023-05-06T04:57:04.495Z,44.56
2023-05-06T04:58:04.527Z,43.66
2023-05-06T04:59:04.568Z,44.55
2023-05-06T05:00:04.677Z,44.09
2023-05-06T05:01:04.880Z,43.35
2023-05-06T05:02:04.911Z,45.66
2023-05-06T05:03:05.262Z,46.40
2023-05-06T05:04:05.147Z,46.57
2023-05-06T05:05:05.196Z,47.36
2023-05-06T05:06:05.261Z,48.14
2023-05-06T05:07:05.358Z,49.04
2023-05-06T05:08:05.461Z,48.92
2023-05-06T05:09:05.581Z,49.25
2023-05-06T05:10:05.666Z,50.66
2023-05-06T05:11:05.781Z,51.65
2023-05-06T05:12:05.901Z,51.44
2023-05-06T05:13:06.026Z,51.39
2023-05-06T05:14:06.115Z,49.61
2023-05-06T05:15:06.205Z,50.48
2023-05-06T05:16:06.292Z,50.22
2023-05-06T05:17:06.743Z,51.26
2023-05-06T05:18:06.546Z,51.10
2023-05-06T05:19:08.954Z,52.75
2023-05-06T05:20:06.652Z,53.38
2023-05-06T05:21:06.681Z,53.92
2023-05-06T05:22:06.711Z,53.70
2023-05-06T05:23:06.861Z,54.46
2023-05-06T05:24:06.784Z,53.87
2023-05-06T05:25:07.904Z,53.68
2023-05-06T05:26:06.929Z,54.53
2023-05-06T05:27:06.871Z,56.21
2023-05-06T05:28:06.938Z,55.16
2023-05-06T05:29:06.972Z,58.10
2023-05-06T05:30:07.019Z,60.45
2023-05-06T05:31:09.672Z,61.50
2023-05-06T05:32:07.107Z,61.60
2023-05-06T05:33:07.260Z,61.69
2023-05-06T05:34:07.106Z,62.44
2023-05-06T05:35:07.272Z,62.76
2023-05-06T05:36:07.186Z,65.21
2023-05-06T05:37:07.274Z,65.46
2023-05-06T05:38:07.258Z,65.42
2023-05-06T05:39:07.265Z,64.98
2023-05-06T05:40:07.361Z,65.46
2023-05-06T05:41:07.320Z,66.19
2023-05-06T05:42:07.389Z,67.33
2023-05-06T05:43:07.550Z,70.82
2023-05-06T05:44:07.576Z,70.90
2023-05-06T05:45:07.749Z,70.87
2023-05-06T05:46:07.655Z,71.43
2023-05-06T05:47:07.613Z,71.45
2023-05-06T05:48:07.686Z,70.91
2023-05-06T05:49:07.657Z,70.85
2023-05-06T05:50:07.707Z,67.80
2023-05-06T05:51:07.715Z,65.33
2023-05-06T05:52:07.740Z,65.07
2023-05-06T05:53:07.772Z,63.59
2023-05-06T05:54:07.800Z,64.04
2023-05-06T05:55:08.147Z,65.60
2023-05-06T05:56:07.944Z,64.94
2023-05-06T05:57:08.050Z,63.24
2023-05-06T05:58:08.101Z,62.65
2023-05-06T05:59:08.173Z,64.03
2023-05-06T06:00:08.254Z,63.91
2023-05-06T06:01:08.355Z,63.43
2023-05-06T06:02:08.570Z,61.66
2023-05-06T06:03:08.632Z,60.36
2023-05-06T06:04:08.666Z,56.79
2023-05-06T06:05:09.056Z,54.62
2023-05-06T06:06:08.761Z,53.28
2023-05-06T06:07:08.807Z,53.30
2023-05-06T06:08:08.839Z,52.14
2023-05-06T06:09:08.863Z,51.21
2023-05-06T06:10:08.885Z,49.54
2023-05-06T06:11:08.904Z,48.12
2023-05-06T06:12:08.942Z,47.76
2023-05-06T06:13:09.005Z,45.31
2023-05-06T06:14:09.056Z,45.43
2023-05-06T06:15:09.201Z,43.88
2023-05-06T06:16:09.091Z,42.17
2023-05-06T06:17:09.191Z,41.24
2023-05-06T06:18:09.242Z,39.98
2023-05-06T06:19:09.319Z,38.69
2023-05-06T06:20:09.439Z,37.86
2023-05-06T06:21:09.553Z,37.41
2023-05-06T06:22:09.613Z,36.54
2023-05-06T06:23:09.715Z,36.87
2023-05-06T06:24:09.792Z,35.93
2023-05-06T06:25:10.114Z,35.87
2023-05-06T06:26:12.119Z,36.54
2023-05-06T06:27:10.094Z,35.12
2023-05-06T06:28:10.201Z,35.03
2023-05-06T06:29:10.274Z,34.02
2023-05-06T06:30:10.383Z,33.30
2023-05-06T06:31:10.514Z,31.28
2023-05-06T06:32:10.620Z,29.84
2023-05-06T06:33:10.651Z,28.65
2023-05-06T06:34:10.772Z,28.17
2023-05-06T06:35:10.990Z,28.13
2023-05-06T06:36:10.935Z,28.75
2023-05-06T06:37:11.097Z,27.89
2023-05-06T06:38:11.113Z,28.31
2023-05-06T06:39:11.185Z,28.66
2023-05-06T06:40:11.295Z,28.83
2023-05-06T06:41:11.344Z,28.36
2023-05-06T06:42:11.477Z,28.65
2023-05-06T06:43:11.552Z,28.46
2023-05-06T06:44:11.637Z,28.41
2023-05-06T06:45:11.948Z,28.43
2023-05-06T06:46:11.755Z,28.02
2023-05-06T06:47:11.722Z,28.41
2023-05-06T06:48:11.860Z,27.59
2023-05-06T06:49:11.807Z,27.59
2023-05-06T06:50:11.806Z,26.68
2023-05-06T06:51:11.844Z,26.30
2023-05-06T06:52:11.907Z,24.60
2023-05-06T06:53:11.980Z,24.24
2023-05-06T06:54:11.942Z,22.57
2023-05-06T06:55:12.302Z,21.97
2023-05-06T06:56:12.026Z,20.26
2023-05-06T06:57:12.086Z,19.39
2023-05-06T06:58:12.080Z,18.39
2023-05-06T06:59:12.127Z,18.76
2023-05-06T07:00:12.135Z,18.52
2023-05-06T07:01:12.221Z,18.22
2023-05-06T07:02:12.201Z,18.50
2023-05-06T07:03:12.310Z,20.06
2023-05-06T07:04:12.437Z,21.06
2023-05-06T07:05:12.768Z,21.49
2023-05-06T07:06:12.642Z,22.39
2023-05-06T07:07:12.683Z,22.10
2023-05-06T07:08:12.789Z,21.57
2023-05-06T07:09:12.864Z,21.91
2023-05-06T07:10:12.960Z,21.45
2023-05-06T07:11:13.068Z,21.90
2023-05-06T07:12:13.141Z,22.34
2023-05-06T07:13:13.256Z,22.95
2023-05-06T07:14:13.355Z,22.56
2023-05-06T07:15:13.634Z,22.49
2023-05-06T07:16:13.534Z,23.82
2023-05-06T07:17:13.682Z,24.37
2023-05-06T07:18:14.204Z,27.22
2023-05-06T07:19:13.968Z,29.41
2023-05-06T07:20:13.911Z,30.85
2023-05-06T07:21:14.107Z,32.39
2023-05-06T07:22:14.105Z,34.33
2023-05-06T07:23:14.209Z,38.33
2023-05-06T07:24:14.369Z,40.84
2023-05-06T07:25:14.446Z,44.25
2023-05-06T07:26:14.493Z,47.76
2023-05-06T07:27:14.568Z,50.10
2023-05-06T07:28:14.693Z,54.19
2023-05-06T07:29:14.765Z,56.64
2023-05-06T07:30:14.876Z,55.85
2023-05-06T07:31:15.027Z,59.34
2023-05-06T07:32:15.056Z,60.35
2023-05-06T07:33:15.160Z,61.91
2023-05-06T07:34:15.269Z,65.33
2023-05-06T07:35:15.264Z,68.80
2023-05-06T07:36:15.345Z,72.43
2023-05-06T07:37:15.520Z,76.79
2023-05-06T07:38:15.535Z,77.12
2023-05-06T07:39:15.643Z,84.03
2023-05-06T07:40:15.673Z,84.58
2023-05-06T07:41:15.810Z,86.94
2023-05-06T07:42:23.698Z,89.69
2023-05-06T07:43:15.813Z,89.88
2023-05-06T07:44:15.813Z,90.03
2023-05-06T07:45:15.851Z,90.04
2023-05-06T07:46:15.934Z,90.70
2023-05-06T07:47:15.914Z,92.77
2023-05-06T07:48:17.999Z,93.85
2023-05-06T07:49:15.945Z,99.39
2023-05-06T07:50:15.998Z,102.83
2023-05-06T07:51:15.996Z,102.43
2023-05-06T07:52:16.051Z,104.66
2023-05-06T07:53:16.101Z,103.16
2023-05-06T07:54:16.081Z,103.37
2023-05-06T07:55:16.109Z,103.20
2023-05-06T07:56:16.654Z,103.68
2023-05-06T07:57:16.339Z,108.80
2023-05-06T07:58:16.656Z,106.93
2023-05-06T07:59:16.216Z,105.73
2023-05-06T08:00:16.258Z,105.04
2023-05-06T08:01:16.262Z,104.34
2023-05-06T08:02:16.316Z,100.22
2023-05-06T08:03:16.343Z,90.66
2023-05-06T08:04:16.345Z,87.00
2023-05-06T08:05:16.351Z,80.50
2023-05-06T08:06:16.374Z,77.83
2023-05-06T08:07:16.394Z,73.64
2023-05-06T08:08:16.435Z,68.20
2023-05-06T08:09:22.761Z,61.93
2023-05-06T08:10:17.458Z,61.26
2023-05-06T08:11:19.166Z,55.96
2023-05-06T08:12:16.547Z,51.92
2023-05-06T08:13:16.653Z,45.20
2023-05-06T08:14:16.564Z,42.27
2023-05-06T08:15:16.550Z,40.90
2023-05-06T08:16:16.658Z,34.59
2023-05-06T08:17:16.596Z,32.00
2023-05-06T08:18:22.169Z,29.65
2023-05-06T08:19:17.639Z,29.66
2023-05-06T08:20:16.684Z,27.86
2023-05-06T08:21:16.648Z,25.53
2023-05-06T08:22:16.676Z,23.41
2023-05-06T08:23:16.722Z,20.82
2023-05-06T08:24:16.705Z,18.44
2023-05-06T08:25:16.725Z,18.21
2023-05-06T08:26:16.769Z,17.70
2023-05-06T08:27:16.766Z,15.90
2023-05-06T08:28:16.880Z,15.28
2023-05-06T08:29:16.853Z,13.63
2023-05-06T08:30:16.838Z,12.38
2023-05-06T08:31:16.922Z,12.36
2023-05-06T08:32:16.844Z,11.50
2023-05-06T08:33:16.887Z,10.68
2023-05-06T08:34:16.922Z,9.87
2023-05-06T08:35:16.960Z,8.60
2023-05-06T08:36:16.994Z,8.63
2023-05-06T08:37:17.061Z,7.07
2023-05-06T08:38:17.099Z,7.39
2023-05-06T08:39:17.133Z,6.79
2023-05-06T08:40:17.165Z,6.84
2023-05-06T08:41:17.329Z,8.32
2023-05-06T08:42:17.254Z,9.30
2023-05-06T08:43:17.285Z,9.22
2023-05-06T08:44:17.375Z,8.60
2023-05-06T08:45:17.398Z,8.47
2023-05-06T08:46:17.515Z,8.39
2023-05-06T08:47:17.544Z,8.78
2023-05-06T08:48:17.661Z,9.39
2023-05-06T08:49:17.700Z,9.58
2023-05-06T08:50:17.798Z,9.93
2023-05-06T08:51:17.885Z,10.15
2023-05-06T08:52:17.933Z,10.39
2023-05-06T08:53:18.003Z,10.82
2023-05-06T08:54:18.068Z,11.20
2023-05-06T08:55:18.122Z,11.61
2023-05-06T08:56:18.191Z,11.80
2023-05-06T08:57:18.251Z,12.47
2023-05-06T08:58:18.317Z,12.62
2023-05-06T08:59:18.387Z,13.08
2023-05-06T09:00:18.453Z,13.66
2023-05-06T09:01:18.597Z,14.17
2023-05-06T09:02:18.553Z,14.49
2023-05-06T09:03:18.923Z,15.28
2023-05-06T09:04:18.618Z,15.58
2023-05-06T09:05:18.706Z,16.37
2023-05-06T09:06:18.715Z,17.10
2023-05-06T09:07:18.774Z,17.28
2023-05-06T09:08:18.809Z,17.98
2023-05-06T09:09:18.912Z,18.24
2023-05-06T09:10:19.122Z,19.06
2023-05-06T09:11:18.960Z,19.31
2023-05-06T09:12:18.964Z,20.36
2023-05-06T09:13:19.081Z,21.05
2023-05-06T09:14:19.071Z,21.67
2023-05-06T09:15:19.099Z,22.33
2023-05-06T09:16:19.137Z,22.38
2023-05-06T09:17:19.130Z,22.68
2023-05-06T09:18:19.140Z,23.33
2023-05-06T09:19:19.116Z,24.45
2023-05-06T09:20:19.138Z,26.63
2023-05-06T09:21:19.155Z,27.08
2023-05-06T09:22:19.129Z,28.34
2023-05-06T09:23:19.165Z,28.94
2023-05-06T09:24:19.161Z,29.29
2023-05-06T09:25:19.123Z,31.33
2023-05-06T09:26:19.144Z,31.88
2023-05-06T09:27:19.129Z,32.59
2023-05-06T09:28:19.237Z,32.96
2023-05-06T09:29:19.139Z,33.61
2023-05-06T09:30:19.188Z,34.42
2023-05-06T09:31:19.199Z,35.10
2023-05-06T09:32:19.181Z,36.17
2023-05-06T09:33:19.237Z,36.97
2023-05-06T09:34:19.274Z,37.82
2023-05-06T09:35:19.302Z,37.84
2023-05-06T09:36:19.347Z,39.14
2023-05-06T09:37:19.340Z,39.20
2023-05-06T09:38:19.387Z,39.40
2023-05-06T09:39:19.351Z,39.27
2023-05-06T09:40:19.397Z,39.80
2023-05-06T09:41:19.377Z,40.87
2023-05-06T09:42:19.359Z,41.96
2023-05-06T09:43:19.398Z,44.75
2023-05-06T09:44:19.381Z,39.38
2023-05-06T09:45:19.357Z,40.34
2023-05-06T09:46:19.404Z,41.80
2023-05-06T09:47:19.343Z,45.13
2023-05-06T09:48:19.370Z,48.84
2023-05-06T09:49:19.515Z,50.01
2023-05-06T09:50:19.374Z,50.65
2023-05-06T09:51:19.370Z,51.30
2023-05-06T09:52:19.368Z,51.59
2023-05-06T09:53:19.399Z,52.53
2023-05-06T09:54:19.379Z,53.41
2023-05-06T09:55:19.388Z,53.92
2023-05-06T09:56:19.410Z,54.15
2023-05-06T09:57:19.426Z,55.29
2023-05-06T09:58:19.414Z,55.60
2023-05-06T09:59:19.404Z,55.93
2023-05-06T10:00:19.461Z,56.30
2023-05-06T10:01:32.577Z,56.76
2023-05-06T10:02:20.624Z,56.87
2023-05-06T10:03:19.644Z,57.14
2023-05-06T10:04:19.640Z,57.81
2023-05-06T10:05:19.620Z,58.44
2023-05-06T10:06:19.542Z,60.10
2023-05-06T10:07:19.537Z,60.12
2023-05-06T10:08:19.552Z,61.11
2023-05-06T10:09:19.535Z,60.65
2023-05-06T10:10:19.616Z,62.28
2023-05-06T10:11:19.539Z,63.06
2023-05-06T10:12:19.557Z,61.32
2023-05-06T10:13:19.715Z,62.63
2023-05-06T10:14:19.597Z,62.89
2023-05-06T10:15:19.556Z,64.69
2023-05-06T10:16:19.606Z,64.22
2023-05-06T10:17:19.581Z,64.73
2023-05-06T10:18:19.607Z,64.63
2023-05-06T10:19:19.734Z,64.22
2023-05-06T10:20:19.654Z,65.18
2023-05-06T10:21:19.845Z,64.95
2023-05-06T10:22:19.731Z,65.60
2023-05-06T10:23:19.738Z,65.58
2023-05-06T10:24:19.778Z,66.60
2023-05-06T10:25:19.805Z,66.78
2023-05-06T10:26:19.838Z,66.48
2023-05-06T10:27:19.889Z,66.92
2023-05-06T10:28:29.868Z,66.65
2023-05-06T10:29:21.733Z,66.77
2023-05-06T10:30:19.920Z,67.15
2023-05-06T10:31:20.011Z,67.66
2023-05-06T10:32:19.982Z,68.56
2023-05-06T10:33:19.947Z,69.91
2023-05-06T10:34:19.972Z,69.72
2023-05-06T10:35:19.980Z,69.57
2023-05-06T10:36:19.972Z,69.78
2023-05-06T10:37:20.108Z,69.41
2023-05-06T10:38:19.974Z,69.86
2023-05-06T10:39:19.999Z,70.51
2023-05-06T10:40:20.027Z,69.05
2023-05-06T10:41:19.989Z,69.74
2023-05-06T10:42:20.001Z,70.54
2023-05-06T10:43:20.015Z,70.22
2023-05-06T10:44:20.221Z,69.16
2023-05-06T10:45:20.019Z,69.50
2023-05-06T10:46:20.026Z,69.39
2023-05-06T10:47:20.035Z,70.62
2023-05-06T10:48:20.013Z,69.85
2023-05-06T10:49:20.037Z,70.94
2023-05-06T10:50:20.035Z,70.24
2023-05-06T10:51:20.020Z,70.22
2023-05-06T10:52:20.060Z,69.61
2023-05-06T10:53:20.217Z,69.83
2023-05-06T10:54:20.002Z,70.40
2023-05-06T10:55:19.997Z,69.92
2023-05-06T10:56:20.008Z,71.17
2023-05-06T10:57:19.987Z,68.78
2023-05-06T10:58:20.008Z,70.10
2023-05-06T10:59:20.005Z,69.21
2023-05-06T11:00:19.999Z,68.94
2023-05-06T11:01:20.029Z,68.30
2023-05-06T11:02:20.265Z,69.50
2023-05-06T11:03:20.092Z,68.79
2023-05-06T11:04:20.031Z,68.88
2023-05-06T11:05:19.982Z,69.01
2023-05-06T11:06:19.988Z,69.43
2023-05-06T11:07:19.992Z,69.95
2023-05-06T11:08:20.030Z,70.24
2023-05-06T11:09:20.068Z,68.93
2023-05-06T11:10:20.009Z,69.26
2023-05-06T11:11:19.994Z,70.15
2023-05-06T11:12:19.992Z,70.27
2023-05-06T11:13:20.039Z,68.95
2023-05-06T11:14:20.017Z,69.40
2023-05-06T11:15:20.112Z,69.71
2023-05-06T11:16:20.004Z,70.00
2023-05-06T11:17:20.087Z,71.10
2023-05-06T11:18:19.983Z,70.23
2023-05-06T11:19:20.017Z,70.72
2023-05-06T11:20:19.983Z,71.16
2023-05-06T11:21:19.993Z,70.19
2023-05-06T11:22:19.980Z,70.65
2023-05-06T11:23:20.003Z,70.10
2023-05-06T11:24:19.987Z,70.08
2023-05-06T11:25:20.066Z,69.15
2023-05-06T11:26:19.997Z,68.92
2023-05-06T11:27:19.992Z,68.13
2023-05-06T11:28:19.992Z,68.22
2023-05-06T11:29:20.016Z,68.29
2023-05-06T11:30:19.997Z,68.70
2023-05-06T11:31:20.031Z,68.69
2023-05-06T11:32:19.998Z,68.99
2023-05-06T11:33:20.010Z,68.27
2023-05-06T11:34:20.078Z,68.59
2023-05-06T11:35:20.007Z,68.94
2023-05-06T11:36:20.035Z,69.57
2023-05-06T11:37:20.000Z,69.27
2023-05-06T11:38:20.006Z,69.96
2023-05-06T11:39:20.048Z,68.52
2023-05-06T11:40:20.009Z,68.96
2023-05-06T11:41:20.086Z,68.55
2023-05-06T11:42:20.010Z,68.67
2023-05-06T11:43:20.190Z,68.63
2023-05-06T11:44:20.023Z,68.69
2023-05-06T11:45:20.005Z,67.85
2023-05-06T11:46:20.065Z,67.61
2023-05-06T11:47:20.012Z,67.51
2023-05-06T11:48:20.011Z,67.33
2023-05-06T11:49:20.029Z,66.91
2023-05-06T11:50:20.002Z,67.67
2023-05-06T11:51:20.000Z,66.83
2023-05-06T11:52:19.992Z,65.74
2023-05-06T11:53:20.027Z,66.79
2023-05-06T11:54:20.019Z,65.92
2023-05-06T11:55:20.043Z,66.17
2023-05-06T11:56:20.164Z,65.82
2023-05-06T11:57:20.175Z,65.11
2023-05-06T11:58:20.133Z,65.47
2023-05-06T11:59:20.161Z,64.53
2023-05-06T12:00:20.151Z,64.87
2023-05-06T12:01:20.197Z,63.35
2023-05-06T12:02:20.254Z,64.32
2023-05-06T12:03:20.394Z,64.12
2023-05-06T12:04:20.284Z,64.36
2023-05-06T12:05:20.275Z,64.04
2023-05-06T12:06:20.723Z,63.31
2023-05-06T12:07:20.313Z,64.19
2023-05-06T12:08:27.573Z,63.77
2023-05-06T12:09:21.761Z,63.85
2023-05-06T12:10:20.333Z,63.92
2023-05-06T12:11:20.343Z,64.04
2023-05-06T12:12:20.356Z,64.20
2023-05-06T12:13:20.369Z,64.85
2023-05-06T12:14:20.330Z,64.31
2023-05-06T12:15:20.339Z,63.61
2023-05-06T12:16:20.354Z,63.07
2023-05-06T12:17:20.342Z,63.22
2023-05-06T12:18:20.367Z,62.61
2023-05-06T12:19:20.349Z,62.64
2023-05-06T12:20:20.349Z,62.81
2023-05-06T12:21:20.347Z,62.44
2023-05-06T12:22:20.376Z,61.27
2023-05-06T12:23:20.342Z,62.42
2023-05-06T12:24:20.395Z,62.09
2023-05-06T12:25:20.342Z,62.50
2023-05-06T12:26:20.346Z,61.56
2023-05-06T12:27:20.348Z,60.79
2023-05-06T12:28:20.362Z,61.02
2023-05-06T12:29:20.455Z,60.51
2023-05-06T12:30:20.371Z,61.05
2023-05-06T12:31:20.525Z,60.52
2023-05-06T12:32:20.380Z,59.98
2023-05-06T12:33:20.370Z,60.47
2023-05-06T12:34:20.378Z,58.98
2023-05-06T12:35:20.387Z,58.41
2023-05-06T12:36:20.552Z,58.53
2023-05-06T12:37:20.401Z,58.51
2023-05-06T12:38:20.391Z,58.18
2023-05-06T12:39:20.448Z,58.69
2023-05-06T12:40:20.393Z,57.66
2023-05-06T12:41:20.430Z,60.68
2023-05-06T12:42:20.419Z,56.88
2023-05-06T12:43:20.477Z,58.46
2023-05-06T12:44:20.427Z,58.27
2023-05-06T12:45:20.667Z,57.80
2023-05-06T12:46:20.449Z,57.65
2023-05-06T12:47:20.455Z,56.11
2023-05-06T12:48:20.447Z,55.21